Mosca, Colorado
Current Conditions -  °F | °C
As of 12:52 PM on Friday 28 Nov 2014 (Local Time) from KALS Reporting Station
Clear Clear  
Wind Chill: 56°   Ceiling: Unl
Heat Index: 56°   Visibility: 10mi
Dew Point: 14°   Wind: 0mph
Humidity: 19%   Direction: NA
Pressure: 30.12"   Gusts: NA
Location:  37.65°N, 105.87°W
Report Text: KALS 281952Z AUTO 00000KT 10SM CLR 13/M10 A3012 RMK AO2 SLP187 T01331100
Loading
Personal Weather Stations






























Interactive Weather Map New forecast layout! Learn more

10-Day Weather Forecast

Advertisements
Track Severe Weather on mobile